sensor_id;sensor_type;location;lat;lon;timestamp;P1;durP1;ratioP1;P2;durP2;ratioP2
29906;SDS011;16776;50.958;10.994;2023-08-06T00:00:52;0.77;;;0.43;;
29906;SDS011;16776;50.958;10.994;2023-08-06T00:03:22;0.30;;;0.30;;
29906;SDS011;16776;50.958;10.994;2023-08-06T00:05:48;0.40;;;0.40;;
29906;SDS011;16776;50.958;10.994;2023-08-06T00:08:15;0.75;;;0.43;;
29906;SDS011;16776;50.958;10.994;2023-08-06T00:10:43;0.63;;;0.63;;
29906;SDS011;16776;50.958;10.994;2023-08-06T00:13:09;0.20;;;0.20;;
29906;SDS011;16776;50.958;10.994;2023-08-06T00:15:36;0.50;;;0.50;;
29906;SDS011;16776;50.958;10.994;2023-08-06T00:18:02;0.32;;;0.32;;
29906;SDS011;16776;50.958;10.994;2023-08-06T00:20:29;1.30;;;0.40;;
29906;SDS011;16776;50.958;10.994;2023-08-06T00:22:56;0.88;;;0.88;;
29906;SDS011;16776;50.958;10.994;2023-08-06T00:25:23;0.50;;;0.50;;
29906;SDS011;16776;50.958;10.994;2023-08-06T00:27:50;0.68;;;0.38;;
29906;SDS011;16776;50.958;10.994;2023-08-06T00:30:17;0.68;;;0.40;;
29906;SDS011;16776;50.958;10.994;2023-08-06T00:32:44;1.25;;;0.50;;
29906;SDS011;16776;50.958;10.994;2023-08-06T00:35:10;1.05;;;0.40;;
29906;SDS011;16776;50.958;10.994;2023-08-06T00:37:38;0.43;;;0.43;;
29906;SDS011;16776;50.958;10.994;2023-08-06T00:40:05;0.50;;;0.50;;
29906;SDS011;16776;50.958;10.994;2023-08-06T00:42:33;1.33;;;0.50;;
29906;SDS011;16776;50.958;10.994;2023-08-06T00:45:01;0.45;;;0.45;;
29906;SDS011;16776;50.958;10.994;2023-08-06T00:47:28;0.77;;;0.40;;
29906;SDS011;16776;50.958;10.994;2023-08-06T00:49:54;0.52;;;0.50;;
29906;SDS011;16776;50.958;10.994;2023-08-06T00:52:21;0.47;;;0.30;;
29906;SDS011;16776;50.958;10.994;2023-08-06T00:54:48;0.40;;;0.40;;
29906;SDS011;16776;50.958;10.994;2023-08-06T00:57:15;1.30;;;0.40;;
29906;SDS011;16776;50.958;10.994;2023-08-06T00:59:43;0.50;;;0.32;;
29906;SDS011;16776;50.958;10.994;2023-08-06T01:02:11;0.65;;;0.60;;
29906;SDS011;16776;50.958;10.994;2023-08-06T01:04:38;1.05;;;0.40;;
29906;SDS011;16776;50.958;10.994;2023-08-06T01:07:07;0.57;;;0.40;;
29906;SDS011;16776;50.958;10.994;2023-08-06T01:09:48;1.33;;;0.50;;
29906;SDS011;16776;50.958;10.994;2023-08-06T01:12:25;0.40;;;0.40;;
29906;SDS011;16776;50.958;10.994;2023-08-06T01:15:01;0.50;;;0.50;;
29906;SDS011;16776;50.958;10.994;2023-08-06T01:17:35;1.27;;;0.50;;
29906;SDS011;16776;50.958;10.994;2023-08-06T01:20:02;0.50;;;0.50;;
29906;SDS011;16776;50.958;10.994;2023-08-06T01:22:30;0.50;;;0.50;;
29906;SDS011;16776;50.958;10.994;2023-08-06T01:24:57;1.15;;;0.65;;
29906;SDS011;16776;50.958;10.994;2023-08-06T01:27:25;0.55;;;0.55;;
29906;SDS011;16776;50.958;10.994;2023-08-06T01:29:57;0.50;;;0.50;;
29906;SDS011;16776;50.958;10.994;2023-08-06T01:32:29;0.60;;;0.60;;
29906;SDS011;16776;50.958;10.994;2023-08-06T01:35:00;3.40;;;0.60;;
29906;SDS011;16776;50.958;10.994;2023-08-06T01:37:28;0.60;;;0.60;;
29906;SDS011;16776;50.958;10.994;2023-08-06T01:39:56;0.45;;;0.40;;
29906;SDS011;16776;50.958;10.994;2023-08-06T01:42:23;0.47;;;0.47;;
29906;SDS011;16776;50.958;10.994;2023-08-06T01:44:50;1.15;;;0.60;;
29906;SDS011;16776;50.958;10.994;2023-08-06T01:47:16;1.20;;;0.57;;
29906;SDS011;16776;50.958;10.994;2023-08-06T01:49:43;0.60;;;0.60;;
29906;SDS011;16776;50.958;10.994;2023-08-06T01:52:10;1.05;;;0.55;;
29906;SDS011;16776;50.958;10.994;2023-08-06T01:54:36;1.45;;;0.60;;
29906;SDS011;16776;50.958;10.994;2023-08-06T01:57:05;1.15;;;0.70;;
29906;SDS011;16776;50.958;10.994;2023-08-06T01:59:31;0.57;;;0.57;;
29906;SDS011;16776;50.958;10.994;2023-08-06T02:01:58;0.43;;;0.40;;
29906;SDS011;16776;50.958;10.994;2023-08-06T02:04:27;0.63;;;0.60;;
29906;SDS011;16776;50.958;10.994;2023-08-06T02:06:53;0.43;;;0.43;;
29906;SDS011;16776;50.958;10.994;2023-08-06T02:09:20;0.60;;;0.60;;
29906;SDS011;16776;50.958;10.994;2023-08-06T02:11:46;3.75;;;0.98;;
29906;SDS011;16776;50.958;10.994;2023-08-06T02:14:14;0.55;;;0.47;;
29906;SDS011;16776;50.958;10.994;2023-08-06T02:16:41;0.50;;;0.50;;
29906;SDS011;16776;50.958;10.994;2023-08-06T02:19:07;0.50;;;0.50;;
29906;SDS011;16776;50.958;10.994;2023-08-06T02:21:34;0.50;;;0.50;;
29906;SDS011;16776;50.958;10.994;2023-08-06T02:24:00;1.25;;;0.70;;
29906;SDS011;16776;50.958;10.994;2023-08-06T02:26:27;1.98;;;0.60;;
29906;SDS011;16776;50.958;10.994;2023-08-06T02:28:54;0.80;;;0.45;;
29906;SDS011;16776;50.958;10.994;2023-08-06T02:31:24;0.73;;;0.60;;
29906;SDS011;16776;50.958;10.994;2023-08-06T02:33:50;0.70;;;0.50;;
29906;SDS011;16776;50.958;10.994;2023-08-06T02:36:18;0.57;;;0.57;;
29906;SDS011;16776;50.958;10.994;2023-08-06T02:38:45;0.60;;;0.60;;
29906;SDS011;16776;50.958;10.994;2023-08-06T02:41:11;2.42;;;0.65;;
29906;SDS011;16776;50.958;10.994;2023-08-06T02:43:38;0.88;;;0.70;;
29906;SDS011;16776;50.958;10.994;2023-08-06T02:46:05;0.60;;;0.60;;
29906;SDS011;16776;50.958;10.994;2023-08-06T02:48:32;0.60;;;0.60;;
29906;SDS011;16776;50.958;10.994;2023-08-06T02:50:59;1.17;;;0.85;;
29906;SDS011;16776;50.958;10.994;2023-08-06T02:53:26;0.68;;;0.60;;
29906;SDS011;16776;50.958;10.994;2023-08-06T02:55:52;0.40;;;0.40;;
29906;SDS011;16776;50.958;10.994;2023-08-06T02:58:19;0.52;;;0.52;;
29906;SDS011;16776;50.958;10.994;2023-08-06T03:00:58;0.65;;;0.60;;
29906;SDS011;16776;50.958;10.994;2023-08-06T03:03:25;0.63;;;0.63;;
29906;SDS011;16776;50.958;10.994;2023-08-06T03:05:53;0.90;;;0.90;;
29906;SDS011;16776;50.958;10.994;2023-08-06T03:08:20;1.27;;;0.60;;
29906;SDS011;16776;50.958;10.994;2023-08-06T03:10:47;0.50;;;0.50;;
29906;SDS011;16776;50.958;10.994;2023-08-06T03:13:14;0.60;;;0.60;;
29906;SDS011;16776;50.958;10.994;2023-08-06T03:15:41;0.68;;;0.68;;
29906;SDS011;16776;50.958;10.994;2023-08-06T03:18:07;0.70;;;0.60;;
29906;SDS011;16776;50.958;10.994;2023-08-06T03:20:34;1.05;;;0.68;;
29906;SDS011;16776;50.958;10.994;2023-08-06T03:23:02;0.47;;;0.47;;
29906;SDS011;16776;50.958;10.994;2023-08-06T03:25:28;1.77;;;0.90;;
29906;SDS011;16776;50.958;10.994;2023-08-06T03:27:55;1.88;;;0.70;;
29906;SDS011;16776;50.958;10.994;2023-08-06T03:30:21;1.02;;;0.68;;
29906;SDS011;16776;50.958;10.994;2023-08-06T03:32:50;0.70;;;0.70;;
29906;SDS011;16776;50.958;10.994;2023-08-06T03:35:19;0.70;;;0.70;;
29906;SDS011;16776;50.958;10.994;2023-08-06T03:37:46;1.17;;;0.50;;
29906;SDS011;16776;50.958;10.994;2023-08-06T03:40:14;0.45;;;0.45;;
29906;SDS011;16776;50.958;10.994;2023-08-06T03:42:41;2.63;;;0.60;;
29906;SDS011;16776;50.958;10.994;2023-08-06T03:45:08;0.95;;;0.60;;
29906;SDS011;16776;50.958;10.994;2023-08-06T03:47:35;1.38;;;0.50;;
29906;SDS011;16776;50.958;10.994;2023-08-06T03:50:02;0.80;;;0.57;;
29906;SDS011;16776;50.958;10.994;2023-08-06T03:52:29;0.50;;;0.50;;
29906;SDS011;16776;50.958;10.994;2023-08-06T03:54:55;0.85;;;0.68;;
29906;SDS011;16776;50.958;10.994;2023-08-06T03:57:26;2.03;;;0.90;;
29906;SDS011;16776;50.958;10.994;2023-08-06T03:59:53;0.70;;;0.70;;
29906;SDS011;16776;50.958;10.994;2023-08-06T04:02:19;1.05;;;0.50;;
29906;SDS011;16776;50.958;10.994;2023-08-06T04:04:46;0.55;;;0.55;;
29906;SDS011;16776;50.958;10.994;2023-08-06T04:07:12;1.17;;;1.00;;
29906;SDS011;16776;50.958;10.994;2023-08-06T04:09:51;1.65;;;0.50;;
29906;SDS011;16776;50.958;10.994;2023-08-06T04:12:19;0.55;;;0.55;;
29906;SDS011;16776;50.958;10.994;2023-08-06T04:14:47;2.17;;;0.68;;
29906;SDS011;16776;50.958;10.994;2023-08-06T04:17:14;2.53;;;0.68;;
29906;SDS011;16776;50.958;10.994;2023-08-06T04:19:40;0.93;;;0.40;;
29906;SDS011;16776;50.958;10.994;2023-08-06T04:22:07;1.83;;;0.60;;
29906;SDS011;16776;50.958;10.994;2023-08-06T04:24:34;0.50;;;0.50;;
29906;SDS011;16776;50.958;10.994;2023-08-06T04:27:00;0.45;;;0.40;;
29906;SDS011;16776;50.958;10.994;2023-08-06T04:29:27;1.73;;;0.52;;
29906;SDS011;16776;50.958;10.994;2023-08-06T04:31:54;0.50;;;0.50;;
29906;SDS011;16776;50.958;10.994;2023-08-06T04:34:23;0.40;;;0.40;;
29906;SDS011;16776;50.958;10.994;2023-08-06T04:36:49;2.05;;;0.43;;
29906;SDS011;16776;50.958;10.994;2023-08-06T04:39:16;0.85;;;0.40;;
29906;SDS011;16776;50.958;10.994;2023-08-06T04:41:42;2.30;;;0.70;;
29906;SDS011;16776;50.958;10.994;2023-08-06T04:44:09;0.43;;;0.35;;
29906;SDS011;16776;50.958;10.994;2023-08-06T04:46:35;0.98;;;0.50;;
29906;SDS011;16776;50.958;10.994;2023-08-06T04:49:03;1.02;;;0.68;;
29906;SDS011;16776;50.958;10.994;2023-08-06T04:51:31;1.33;;;0.65;;
29906;SDS011;16776;50.958;10.994;2023-08-06T04:53:59;0.60;;;0.50;;
29906;SDS011;16776;50.958;10.994;2023-08-06T04:56:29;2.53;;;0.60;;
29906;SDS011;16776;50.958;10.994;2023-08-06T04:58:57;2.88;;;0.60;;
29906;SDS011;16776;50.958;10.994;2023-08-06T05:01:24;0.50;;;0.50;;
29906;SDS011;16776;50.958;10.994;2023-08-06T05:03:50;0.50;;;0.50;;
29906;SDS011;16776;50.958;10.994;2023-08-06T05:06:18;0.98;;;0.60;;
29906;SDS011;16776;50.958;10.994;2023-08-06T05:08:45;0.60;;;0.60;;
29906;SDS011;16776;50.958;10.994;2023-08-06T05:11:11;0.40;;;0.40;;
29906;SDS011;16776;50.958;10.994;2023-08-06T05:13:39;0.60;;;0.60;;
29906;SDS011;16776;50.958;10.994;2023-08-06T05:16:05;1.27;;;0.47;;
29906;SDS011;16776;50.958;10.994;2023-08-06T05:18:32;0.80;;;0.50;;
29906;SDS011;16776;50.958;10.994;2023-08-06T05:20:59;1.38;;;0.80;;
29906;SDS011;16776;50.958;10.994;2023-08-06T05:23:27;0.75;;;0.50;;
29906;SDS011;16776;50.958;10.994;2023-08-06T05:25:55;0.50;;;0.50;;
29906;SDS011;16776;50.958;10.994;2023-08-06T05:28:22;2.95;;;0.82;;
29906;SDS011;16776;50.958;10.994;2023-08-06T05:30:48;0.57;;;0.57;;
29906;SDS011;16776;50.958;10.994;2023-08-06T05:33:15;0.55;;;0.55;;
29906;SDS011;16776;50.958;10.994;2023-08-06T05:35:41;1.60;;;0.57;;
29906;SDS011;16776;50.958;10.994;2023-08-06T05:38:08;1.00;;;0.40;;
29906;SDS011;16776;50.958;10.994;2023-08-06T05:40:36;2.25;;;0.80;;
29906;SDS011;16776;50.958;10.994;2023-08-06T05:43:02;0.80;;;0.80;;
29906;SDS011;16776;50.958;10.994;2023-08-06T05:45:29;1.45;;;0.63;;
29906;SDS011;16776;50.958;10.994;2023-08-06T05:47:56;0.70;;;0.70;;
29906;SDS011;16776;50.958;10.994;2023-08-06T05:50:23;1.65;;;0.80;;
29906;SDS011;16776;50.958;10.994;2023-08-06T05:52:50;0.80;;;0.50;;
29906;SDS011;16776;50.958;10.994;2023-08-06T05:55:17;1.80;;;0.73;;
29906;SDS011;16776;50.958;10.994;2023-08-06T05:57:47;1.02;;;0.52;;
29906;SDS011;16776;50.958;10.994;2023-08-06T06:00:14;1.42;;;0.57;;
29906;SDS011;16776;50.958;10.994;2023-08-06T06:02:41;0.45;;;0.45;;
29906;SDS011;16776;50.958;10.994;2023-08-06T06:05:07;1.77;;;0.70;;
29906;SDS011;16776;50.958;10.994;2023-08-06T06:07:34;0.57;;;0.57;;
29906;SDS011;16776;50.958;10.994;2023-08-06T06:10:01;0.60;;;0.60;;
29906;SDS011;16776;50.958;10.994;2023-08-06T06:12:27;0.50;;;0.50;;
29906;SDS011;16776;50.958;10.994;2023-08-06T06:14:59;1.67;;;0.70;;
29906;SDS011;16776;50.958;10.994;2023-08-06T06:17:26;0.57;;;0.40;;
29906;SDS011;16776;50.958;10.994;2023-08-06T06:19:52;0.80;;;0.80;;
29906;SDS011;16776;50.958;10.994;2023-08-06T06:22:19;0.82;;;0.82;;
29906;SDS011;16776;50.958;10.994;2023-08-06T06:24:45;0.80;;;0.80;;
29906;SDS011;16776;50.958;10.994;2023-08-06T06:27:18;0.80;;;0.80;;
29906;SDS011;16776;50.958;10.994;2023-08-06T06:29:44;0.60;;;0.60;;
29906;SDS011;16776;50.958;10.994;2023-08-06T06:32:12;0.65;;;0.65;;
29906;SDS011;16776;50.958;10.994;2023-08-06T06:34:39;0.80;;;0.80;;
29906;SDS011;16776;50.958;10.994;2023-08-06T06:37:05;0.77;;;0.77;;
29906;SDS011;16776;50.958;10.994;2023-08-06T06:39:32;0.77;;;0.77;;
29906;SDS011;16776;50.958;10.994;2023-08-06T06:41:59;0.70;;;0.70;;
29906;SDS011;16776;50.958;10.994;2023-08-06T06:44:25;0.70;;;0.70;;
29906;SDS011;16776;50.958;10.994;2023-08-06T06:46:52;1.75;;;0.90;;
29906;SDS011;16776;50.958;10.994;2023-08-06T06:49:20;1.38;;;0.80;;
29906;SDS011;16776;50.958;10.994;2023-08-06T06:51:46;0.90;;;0.77;;
29906;SDS011;16776;50.958;10.994;2023-08-06T06:54:13;0.98;;;0.80;;
29906;SDS011;16776;50.958;10.994;2023-08-06T06:56:39;1.05;;;0.75;;
29906;SDS011;16776;50.958;10.994;2023-08-06T06:59:06;0.88;;;0.88;;
29906;SDS011;16776;50.958;10.994;2023-08-06T07:01:33;0.82;;;0.68;;
29906;SDS011;16776;50.958;10.994;2023-08-06T07:03:59;0.75;;;0.65;;
29906;SDS011;16776;50.958;10.994;2023-08-06T07:06:31;0.70;;;0.70;;
29906;SDS011;16776;50.958;10.994;2023-08-06T07:08:58;0.60;;;0.60;;
29906;SDS011;16776;50.958;10.994;2023-08-06T07:11:24;1.00;;;0.90;;
29906;SDS011;16776;50.958;10.994;2023-08-06T07:13:55;1.02;;;0.70;;
29906;SDS011;16776;50.958;10.994;2023-08-06T07:16:22;0.80;;;0.80;;
29906;SDS011;16776;50.958;10.994;2023-08-06T07:18:50;0.88;;;0.82;;
29906;SDS011;16776;50.958;10.994;2023-08-06T07:21:17;0.75;;;0.75;;
29906;SDS011;16776;50.958;10.994;2023-08-06T07:23:45;0.80;;;0.80;;
29906;SDS011;16776;50.958;10.994;2023-08-06T07:26:14;0.80;;;0.80;;
29906;SDS011;16776;50.958;10.994;2023-08-06T07:28:41;0.90;;;0.90;;
29906;SDS011;16776;50.958;10.994;2023-08-06T07:31:08;0.93;;;0.90;;
29906;SDS011;16776;50.958;10.994;2023-08-06T07:33:34;0.70;;;0.70;;
29906;SDS011;16776;50.958;10.994;2023-08-06T07:36:07;1.23;;;0.43;;
29906;SDS011;16776;50.958;10.994;2023-08-06T07:38:34;0.70;;;0.70;;
29906;SDS011;16776;50.958;10.994;2023-08-06T07:41:04;0.88;;;0.88;;
29906;SDS011;16776;50.958;10.994;2023-08-06T07:43:31;1.33;;;0.70;;
29906;SDS011;16776;50.958;10.994;2023-08-06T07:45:58;1.38;;;0.68;;
29906;SDS011;16776;50.958;10.994;2023-08-06T07:48:25;1.23;;;0.90;;
29906;SDS011;16776;50.958;10.994;2023-08-06T07:50:51;0.90;;;0.90;;
29906;SDS011;16776;50.958;10.994;2023-08-06T07:53:18;0.60;;;0.60;;
29906;SDS011;16776;50.958;10.994;2023-08-06T07:55:47;0.73;;;0.73;;
29906;SDS011;16776;50.958;10.994;2023-08-06T07:58:16;0.60;;;0.60;;
29906;SDS011;16776;50.958;10.994;2023-08-06T08:00:43;0.70;;;0.68;;
29906;SDS011;16776;50.958;10.994;2023-08-06T08:03:10;0.60;;;0.60;;
29906;SDS011;16776;50.958;10.994;2023-08-06T08:05:37;0.70;;;0.70;;
29906;SDS011;16776;50.958;10.994;2023-08-06T08:08:06;2.15;;;0.80;;
29906;SDS011;16776;50.958;10.994;2023-08-06T08:10:32;0.80;;;0.80;;
29906;SDS011;16776;50.958;10.994;2023-08-06T08:12:59;0.50;;;0.50;;
29906;SDS011;16776;50.958;10.994;2023-08-06T08:15:28;0.70;;;0.70;;
29906;SDS011;16776;50.958;10.994;2023-08-06T08:17:55;0.47;;;0.47;;
29906;SDS011;16776;50.958;10.994;2023-08-06T08:20:21;1.58;;;0.55;;
29906;SDS011;16776;50.958;10.994;2023-08-06T08:22:48;0.70;;;0.70;;
29906;SDS011;16776;50.958;10.994;2023-08-06T08:25:18;0.50;;;0.50;;
29906;SDS011;16776;50.958;10.994;2023-08-06T08:27:44;0.57;;;0.57;;
29906;SDS011;16776;50.958;10.994;2023-08-06T08:30:11;0.50;;;0.50;;
29906;SDS011;16776;50.958;10.994;2023-08-06T08:32:39;0.88;;;0.55;;
29906;SDS011;16776;50.958;10.994;2023-08-06T08:35:05;1.02;;;0.60;;
29906;SDS011;16776;50.958;10.994;2023-08-06T08:37:33;0.80;;;0.45;;
29906;SDS011;16776;50.958;10.994;2023-08-06T08:39:59;0.70;;;0.70;;
29906;SDS011;16776;50.958;10.994;2023-08-06T08:42:27;0.50;;;0.50;;
29906;SDS011;16776;50.958;10.994;2023-08-06T08:44:55;0.60;;;0.60;;
29906;SDS011;16776;50.958;10.994;2023-08-06T08:47:23;0.55;;;0.52;;
29906;SDS011;16776;50.958;10.994;2023-08-06T08:49:52;0.47;;;0.47;;
29906;SDS011;16776;50.958;10.994;2023-08-06T08:52:24;0.60;;;0.60;;
29906;SDS011;16776;50.958;10.994;2023-08-06T08:54:55;0.52;;;0.52;;
29906;SDS011;16776;50.958;10.994;2023-08-06T08:57:22;0.77;;;0.52;;
29906;SDS011;16776;50.958;10.994;2023-08-06T08:59:49;0.60;;;0.60;;
29906;SDS011;16776;50.958;10.994;2023-08-06T09:02:16;0.60;;;0.60;;
29906;SDS011;16776;50.958;10.994;2023-08-06T09:04:44;0.77;;;0.77;;
29906;SDS011;16776;50.958;10.994;2023-08-06T09:07:15;0.80;;;0.80;;
29906;SDS011;16776;50.958;10.994;2023-08-06T09:09:46;0.60;;;0.60;;
29906;SDS011;16776;50.958;10.994;2023-08-06T09:12:15;1.98;;;1.10;;
29906;SDS011;16776;50.958;10.994;2023-08-06T09:14:43;0.50;;;0.50;;
29906;SDS011;16776;50.958;10.994;2023-08-06T09:17:09;0.60;;;0.60;;
29906;SDS011;16776;50.958;10.994;2023-08-06T09:19:37;0.80;;;0.80;;
29906;SDS011;16776;50.958;10.994;2023-08-06T09:22:09;1.02;;;0.60;;
29906;SDS011;16776;50.958;10.994;2023-08-06T09:24:40;0.90;;;0.60;;
29906;SDS011;16776;50.958;10.994;2023-08-06T09:27:10;0.80;;;0.80;;
29906;SDS011;16776;50.958;10.994;2023-08-06T09:29:39;1.50;;;0.63;;
29906;SDS011;16776;50.958;10.994;2023-08-06T09:32:07;1.48;;;0.90;;
29906;SDS011;16776;50.958;10.994;2023-08-06T09:34:34;0.65;;;0.65;;
29906;SDS011;16776;50.958;10.994;2023-08-06T09:37:01;0.65;;;0.65;;
29906;SDS011;16776;50.958;10.994;2023-08-06T09:39:30;0.98;;;0.50;;
29906;SDS011;16776;50.958;10.994;2023-08-06T09:41:59;0.85;;;0.82;;
29906;SDS011;16776;50.958;10.994;2023-08-06T09:44:27;0.47;;;0.47;;
29906;SDS011;16776;50.958;10.994;2023-08-06T09:46:57;0.60;;;0.60;;
29906;SDS011;16776;50.958;10.994;2023-08-06T09:49:26;0.60;;;0.60;;
29906;SDS011;16776;50.958;10.994;2023-08-06T09:51:53;0.82;;;0.70;;
29906;SDS011;16776;50.958;10.994;2023-08-06T09:54:23;0.60;;;0.60;;
29906;SDS011;16776;50.958;10.994;2023-08-06T09:56:51;0.43;;;0.43;;
29906;SDS011;16776;50.958;10.994;2023-08-06T09:59:20;0.85;;;0.40;;
29906;SDS011;16776;50.958;10.994;2023-08-06T10:01:47;0.40;;;0.40;;
29906;SDS011;16776;50.958;10.994;2023-08-06T10:04:14;0.40;;;0.40;;
29906;SDS011;16776;50.958;10.994;2023-08-06T10:06:46;0.60;;;0.50;;
29906;SDS011;16776;50.958;10.994;2023-08-06T10:09:13;0.30;;;0.30;;
29906;SDS011;16776;50.958;10.994;2023-08-06T10:11:40;0.40;;;0.40;;
29906;SDS011;16776;50.958;10.994;2023-08-06T10:14:14;0.73;;;0.38;;
29906;SDS011;16776;50.958;10.994;2023-08-06T10:16:46;0.40;;;0.30;;
29906;SDS011;16776;50.958;10.994;2023-08-06T10:19:13;0.40;;;0.40;;
29906;SDS011;16776;50.958;10.994;2023-08-06T10:21:45;0.68;;;0.55;;
29906;SDS011;16776;50.958;10.994;2023-08-06T10:24:45;0.25;;;0.22;;
29906;SDS011;16776;50.958;10.994;2023-08-06T10:27:12;0.22;;;0.22;;
29906;SDS011;16776;50.958;10.994;2023-08-06T10:29:39;0.40;;;0.38;;
29906;SDS011;16776;50.958;10.994;2023-08-06T10:32:07;0.75;;;0.60;;
29906;SDS011;16776;50.958;10.994;2023-08-06T10:37:19;0.73;;;0.50;;
29906;SDS011;16776;50.958;10.994;2023-08-06T10:39:48;0.52;;;0.43;;
29906;SDS011;16776;50.958;10.994;2023-08-06T10:42:19;0.28;;;0.28;;
29906;SDS011;16776;50.958;10.994;2023-08-06T10:47:42;0.35;;;0.35;;
29906;SDS011;16776;50.958;10.994;2023-08-06T10:50:11;0.40;;;0.40;;
29906;SDS011;16776;50.958;10.994;2023-08-06T10:52:38;1.50;;;0.30;;
29906;SDS011;16776;50.958;10.994;2023-08-06T10:55:05;0.38;;;0.38;;
29906;SDS011;16776;50.958;10.994;2023-08-06T10:57:32;0.43;;;0.43;;
29906;SDS011;16776;50.958;10.994;2023-08-06T10:59:59;0.38;;;0.38;;
29906;SDS011;16776;50.958;10.994;2023-08-06T11:02:25;0.30;;;0.30;;
29906;SDS011;16776;50.958;10.994;2023-08-06T11:04:54;0.50;;;0.50;;
29906;SDS011;16776;50.958;10.994;2023-08-06T11:07:20;0.38;;;0.38;;
29906;SDS011;16776;50.958;10.994;2023-08-06T11:09:50;0.55;;;0.50;;
29906;SDS011;16776;50.958;10.994;2023-08-06T11:12:18;0.28;;;0.28;;
29906;SDS011;16776;50.958;10.994;2023-08-06T11:14:49;1.45;;;0.40;;
29906;SDS011;16776;50.958;10.994;2023-08-06T11:17:16;0.30;;;0.30;;
29906;SDS011;16776;50.958;10.994;2023-08-06T11:19:43;0.70;;;0.40;;
29906;SDS011;16776;50.958;10.994;2023-08-06T11:22:11;0.38;;;0.38;;
29906;SDS011;16776;50.958;10.994;2023-08-06T11:24:38;0.68;;;0.50;;
29906;SDS011;16776;50.958;10.994;2023-08-06T11:27:10;0.32;;;0.30;;
29906;SDS011;16776;50.958;10.994;2023-08-06T11:29:39;0.60;;;0.50;;
29906;SDS011;16776;50.958;10.994;2023-08-06T11:32:06;0.28;;;0.28;;
29906;SDS011;16776;50.958;10.994;2023-08-06T11:34:33;0.52;;;0.40;;
29906;SDS011;16776;50.958;10.994;2023-08-06T11:37:00;0.25;;;0.22;;
29906;SDS011;16776;50.958;10.994;2023-08-06T11:39:32;0.40;;;0.40;;
29906;SDS011;16776;50.958;10.994;2023-08-06T11:41:59;0.40;;;0.40;;
29906;SDS011;16776;50.958;10.994;2023-08-06T11:44:29;0.47;;;0.40;;
29906;SDS011;16776;50.958;10.994;2023-08-06T11:46:56;0.50;;;0.30;;
29906;SDS011;16776;50.958;10.994;2023-08-06T11:49:37;0.40;;;0.40;;
29906;SDS011;16776;50.958;10.994;2023-08-06T11:52:09;0.43;;;0.43;;
29906;SDS011;16776;50.958;10.994;2023-08-06T11:55:00;0.40;;;0.40;;
29906;SDS011;16776;50.958;10.994;2023-08-06T11:57:31;0.60;;;0.60;;
29906;SDS011;16776;50.958;10.994;2023-08-06T12:00:01;0.47;;;0.47;;
29906;SDS011;16776;50.958;10.994;2023-08-06T12:02:32;0.40;;;0.40;;
29906;SDS011;16776;50.958;10.994;2023-08-06T12:05:02;0.43;;;0.40;;
29906;SDS011;16776;50.958;10.994;2023-08-06T12:07:35;0.45;;;0.45;;
29906;SDS011;16776;50.958;10.994;2023-08-06T12:10:05;0.57;;;0.47;;
29906;SDS011;16776;50.958;10.994;2023-08-06T12:12:32;0.60;;;0.50;;
29906;SDS011;16776;50.958;10.994;2023-08-06T12:15:03;0.50;;;0.40;;
29906;SDS011;16776;50.958;10.994;2023-08-06T12:17:31;1.20;;;0.40;;
29906;SDS011;16776;50.958;10.994;2023-08-06T12:19:58;0.63;;;0.40;;
29906;SDS011;16776;50.958;10.994;2023-08-06T12:22:25;3.22;;;0.40;;
29906;SDS011;16776;50.958;10.994;2023-08-06T12:24:51;1.33;;;0.43;;
29906;SDS011;16776;50.958;10.994;2023-08-06T12:27:19;0.20;;;0.20;;
29906;SDS011;16776;50.958;10.994;2023-08-06T12:29:47;0.35;;;0.22;;
29906;SDS011;16776;50.958;10.994;2023-08-06T12:32:16;0.50;;;0.30;;
29906;SDS011;16776;50.958;10.994;2023-08-06T12:34:44;0.45;;;0.30;;
29906;SDS011;16776;50.958;10.994;2023-08-06T12:37:11;0.22;;;0.22;;
29906;SDS011;16776;50.958;10.994;2023-08-06T12:39:38;0.40;;;0.25;;
29906;SDS011;16776;50.958;10.994;2023-08-06T12:42:05;0.50;;;0.50;;
29906;SDS011;16776;50.958;10.994;2023-08-06T12:44:33;0.30;;;0.30;;
29906;SDS011;16776;50.958;10.994;2023-08-06T12:47:00;0.20;;;0.20;;
29906;SDS011;16776;50.958;10.994;2023-08-06T12:49:28;0.30;;;0.30;;
29906;SDS011;16776;50.958;10.994;2023-08-06T12:51:56;0.30;;;0.30;;
29906;SDS011;16776;50.958;10.994;2023-08-06T12:54:24;0.30;;;0.30;;
29906;SDS011;16776;50.958;10.994;2023-08-06T12:56:51;0.47;;;0.20;;
29906;SDS011;16776;50.958;10.994;2023-08-06T12:59:18;0.20;;;0.20;;
29906;SDS011;16776;50.958;10.994;2023-08-06T13:01:46;0.70;;;0.60;;
29906;SDS011;16776;50.958;10.994;2023-08-06T13:04:13;0.20;;;0.20;;
29906;SDS011;16776;50.958;10.994;2023-08-06T13:06:40;0.30;;;0.30;;
29906;SDS011;16776;50.958;10.994;2023-08-06T13:09:06;0.43;;;0.30;;
29906;SDS011;16776;50.958;10.994;2023-08-06T13:11:33;0.40;;;0.30;;
29906;SDS011;16776;50.958;10.994;2023-08-06T13:14:03;0.22;;;0.22;;
29906;SDS011;16776;50.958;10.994;2023-08-06T13:16:31;0.28;;;0.28;;
29906;SDS011;16776;50.958;10.994;2023-08-06T13:18:59;0.30;;;0.30;;
29906;SDS011;16776;50.958;10.994;2023-08-06T13:21:32;0.20;;;0.20;;
29906;SDS011;16776;50.958;10.994;2023-08-06T13:24:00;0.30;;;0.30;;
29906;SDS011;16776;50.958;10.994;2023-08-06T13:26:27;0.30;;;0.20;;
29906;SDS011;16776;50.958;10.994;2023-08-06T13:28:54;1.40;;;0.30;;
29906;SDS011;16776;50.958;10.994;2023-08-06T13:31:21;0.10;;;0.10;;
29906;SDS011;16776;50.958;10.994;2023-08-06T13:33:47;0.50;;;0.30;;
29906;SDS011;16776;50.958;10.994;2023-08-06T13:36:16;0.63;;;0.20;;
29906;SDS011;16776;50.958;10.994;2023-08-06T13:38:43;0.10;;;0.10;;
29906;SDS011;16776;50.958;10.994;2023-08-06T13:41:09;2.45;;;0.38;;
29906;SDS011;16776;50.958;10.994;2023-08-06T13:43:36;0.68;;;0.40;;
29906;SDS011;16776;50.958;10.994;2023-08-06T13:46:03;0.13;;;0.13;;
29906;SDS011;16776;50.958;10.994;2023-08-06T13:48:29;0.10;;;0.10;;
29906;SDS011;16776;50.958;10.994;2023-08-06T13:50:56;0.22;;;0.22;;
29906;SDS011;16776;50.958;10.994;2023-08-06T13:53:24;0.17;;;0.17;;
29906;SDS011;16776;50.958;10.994;2023-08-06T13:55:54;0.10;;;0.10;;
29906;SDS011;16776;50.958;10.994;2023-08-06T13:58:24;0.35;;;0.35;;
29906;SDS011;16776;50.958;10.994;2023-08-06T14:00:51;0.13;;;0.13;;
29906;SDS011;16776;50.958;10.994;2023-08-06T14:03:19;0.22;;;0.17;;
29906;SDS011;16776;50.958;10.994;2023-08-06T14:05:46;0.20;;;0.20;;
29906;SDS011;16776;50.958;10.994;2023-08-06T14:08:13;0.10;;;0.10;;
29906;SDS011;16776;50.958;10.994;2023-08-06T14:10:41;0.38;;;0.05;;
29906;SDS011;16776;50.958;10.994;2023-08-06T14:13:07;0.10;;;0.10;;
29906;SDS011;16776;50.958;10.994;2023-08-06T14:15:34;0.10;;;0.10;;
29906;SDS011;16776;50.958;10.994;2023-08-06T14:18:04;0.00;;;0.00;;
29906;SDS011;16776;50.958;10.994;2023-08-06T14:20:34;0.00;;;0.00;;
29906;SDS011;16776;50.958;10.994;2023-08-06T14:23:00;0.00;;;0.00;;
29906;SDS011;16776;50.958;10.994;2023-08-06T14:25:27;0.00;;;0.00;;
29906;SDS011;16776;50.958;10.994;2023-08-06T14:27:55;0.20;;;0.10;;
29906;SDS011;16776;50.958;10.994;2023-08-06T14:30:21;0.35;;;0.22;;
29906;SDS011;16776;50.958;10.994;2023-08-06T14:32:48;0.00;;;0.00;;
29906;SDS011;16776;50.958;10.994;2023-08-06T14:35:15;0.10;;;0.10;;
29906;SDS011;16776;50.958;10.994;2023-08-06T14:37:41;0.30;;;0.30;;
29906;SDS011;16776;50.958;10.994;2023-08-06T14:40:10;0.30;;;0.10;;
29906;SDS011;16776;50.958;10.994;2023-08-06T14:42:37;0.38;;;0.15;;